Estación Meteorológica Peña el Pijo (Robertgarden) [ 01/30/23 15:43:17 CET ]

Fecha Hora Presion(HPa) Temp (°C) Humedad % Rocio (°C) Viento ( m/s) Direccion Lluvia 1Hora(mm) Lluvia 24H(mm) LLuvia Total(mm)
2012-May-28 01:01:16 1010.800 13.8 62 6.6         159.54
2012-May-28 02:01:12 1010.700 12.1 64 5.5         159.54
2012-May-28 03:01:42 1010.100 11.3 64 4.7         159.54
2012-May-28 04:03:24 1009.700 11.3 62 4.2         159.54
2012-May-28 05:01:16 1009.600 10.5 65 4.2         159.54
2012-May-28 06:01:13 1009.500 10.2 66 4.1         159.54
2012-May-28 07:01:11 1009.600 10.1 68 4.5         159.54
2012-May-28 08:01:13 1009.800 11.3 68 5.6         159.54
2012-May-28 09:01:16 1009.600 16.4 58 8.1         159.54
2012-May-28 10:01:13 1009.400 22.9 37 7.3         159.54
2012-May-28 11:01:14 1009.200 26.4 34 9.2         159.54
2012-May-28 12:01:14 1009.100 30.5 27 9.2         159.54
2012-May-28 13:01:12 1008.700 30.0 26 8.2         159.54
2012-May-28 14:01:12 1008.600 28.3 30 9.1 1.7 NE     159.54
2012-May-28 15:01:13 1008.200 27.3 29 7.7         159.54
2012-May-28 16:01:14 1008.000 25.6 32 7.6         159.54
2012-May-28 17:01:13 1008.100 22.4 44 9.5         159.54
2012-May-28 18:01:13 1008.200 21.9 55 12.4         159.54
2012-May-28 19:01:14 1008.100 21.8 52 11.5         159.54
2012-May-28 20:01:11 1008.200 22.6 45 10.0         159.54
2012-May-28 21:01:13 1008.600 19.8 50 9.1         159.54
2012-May-28 22:01:12 1009.300 16.8 61 9.2         159.54
2012-May-28 23:01:17 1009.900 14.1 71 8.9         159.54

Temperatura Máxima:30°    Temperatura Mínima:10°
Presión Máxima:1010.800 Hpa    Presión Mínima:1008.000 Hpa


Volver